Дата Пункты Температура Давл., мм. Влажн., % Ветер Погодные явления
Воздуха Воды Направл. Скорость
09.08.15 11:00 Одесса 28.0 25.0 762 45 Пн-С 2 12 часов
09.08.15 08:00 Одесса 25.0 25.0 762 52 Пн 2 09 часов
09.08.15 05:00 Одесса 20.0 24.0 762 65 Пн 1 06 часов
09.08.15 02:00 Одесса 21.0 24.0 762 64 Пн-З 1 03 часа
08.08.15 08:00 Одесса 24.0 25.0 762 76 Пн 0 21 час
08.08.15 05:00 Одесса 28.0 25.0 762 33 Пн-С 2 18 часов
08.08.15 02:00 Одесса 28.0 25.0 763 51 С 1 15 часов
08.08.15 11:00 Одесса 27.0 24.0 764 50 С 3 12 часов
08.08.15 08:00 Одесса 24.0 24.0 764 63 Пн-С 6 09 часов
08.08.15 05:00 Одесса 19.0 25.0 763 86 Пн-С 3 06 часов
08.08.15 02:00 Одесса 23.0 25.0 763 74 Пн-С 3 03 часа
07.08.15 08:00 Одесса 24.0 25.0 762 76 Пд-С 1 21 час
07.08.15 05:00 Одесса 28.0 25.0 761 49 Пд 2 18 часов
07.08.15 02:00 Одесса 28.0 25.0 761 53 Пд-С 2 15 часов
07.08.15 11:00 Одесса 27.0 24.0 761 60 Пн-С 4 12 часов
07.08.15 08:00 Одесса 25.0 24.0 761 55 Пн 2 09 часов
07.08.15 05:00 Одесса 21.0 25.0 760 64 Пн-З 2 06 часов
07.08.15 02:00 Одесса 25.0 25.0 760 61 Пн-С 6 03 часа
06.08.15 08:00 Одесса 29.0 25.0 759 52 Пн-С 3 21 час
06.08.15 05:00 Одесса 31.0 25.0 758 31 С 1 18 часов
Количество строк
361 362 363 364 365 366 367 368 369 370
Page 361 of 481